createdAt,value
2023-02-25T00:01:51.212Z,2.58
2023-02-25T00:04:28.676Z,2.22
2023-02-25T00:06:56.277Z,1.95
2023-02-25T00:09:23.946Z,2.75
2023-02-25T00:11:51.475Z,2.80
2023-02-25T00:14:19.092Z,2.47
2023-02-25T00:16:48.906Z,2.03
2023-02-25T00:19:16.875Z,2.30
2023-02-25T00:21:44.725Z,1.98
2023-02-25T00:24:16.965Z,2.88
2023-02-25T00:26:45.347Z,1.80
2023-02-25T00:29:13.034Z,2.15
2023-02-25T00:31:40.821Z,2.10
2023-02-25T00:34:08.342Z,2.00
2023-02-25T00:36:35.844Z,3.17
2023-02-25T00:39:03.494Z,2.20
2023-02-25T00:41:31.007Z,2.15
2023-02-25T00:44:00.543Z,2.60
2023-02-25T00:46:30.088Z,1.75
2023-02-25T00:48:59.065Z,2.10
2023-02-25T00:51:29.537Z,3.33
2023-02-25T00:53:57.981Z,2.63
2023-02-25T00:56:26.438Z,2.10
2023-02-25T00:58:54.000Z,1.95
2023-02-25T01:01:28.858Z,2.25
2023-02-25T01:03:57.872Z,2.05
2023-02-25T01:06:26.828Z,2.40
2023-02-25T01:08:55.018Z,2.10
2023-02-25T01:11:29.611Z,2.58
2023-02-25T01:13:59.582Z,3.25
2023-02-25T01:16:29.585Z,2.08
2023-02-25T01:18:59.854Z,2.05
2023-02-25T01:21:33.776Z,2.35
2023-02-25T01:24:10.196Z,2.15
2023-02-25T01:26:41.453Z,2.42
2023-02-25T01:29:11.324Z,2.15
2023-02-25T01:31:39.068Z,2.25
2023-02-25T01:34:09.305Z,2.20
2023-02-25T01:36:37.127Z,2.10
2023-02-25T01:39:05.225Z,2.42
2023-02-25T01:41:34.146Z,2.17
2023-02-25T01:44:18.498Z,2.35
2023-02-25T01:46:48.391Z,2.03
2023-02-25T01:49:41.560Z,2.63
2023-02-25T01:52:10.430Z,2.58
2023-02-25T01:54:38.821Z,2.55
2023-02-25T01:57:11.789Z,1.70
2023-02-25T01:59:41.540Z,2.08
2023-02-25T02:02:15.418Z,2.38
2023-02-25T02:04:44.598Z,2.67
2023-02-25T02:07:13.264Z,2.42
2023-02-25T02:09:56.048Z,2.22
2023-02-25T02:12:29.140Z,2.28
2023-02-25T02:14:59.195Z,2.00
2023-02-25T02:17:39.483Z,2.30
2023-02-25T02:20:27.313Z,2.05
2023-02-25T02:23:04.017Z,1.95
2023-02-25T02:25:53.627Z,2.22
2023-02-25T02:28:51.395Z,2.58
2023-02-25T02:31:38.669Z,2.17
2023-02-25T02:34:17.242Z,2.15
2023-02-25T02:36:59.213Z,2.00
2023-02-25T02:39:30.645Z,2.05
2023-02-25T02:42:27.599Z,2.15
2023-02-25T02:45:11.574Z,2.10
2023-02-25T02:47:46.974Z,1.88
2023-02-25T02:50:25.423Z,2.17
2023-02-25T02:52:56.431Z,2.08
2023-02-25T02:58:22.231Z,2.08
2023-02-25T03:00:55.866Z,2.00
2023-02-25T03:03:36.428Z,2.60
2023-02-25T03:06:13.270Z,2.00
2023-02-25T03:08:46.132Z,2.05
2023-02-25T03:11:14.878Z,2.65
2023-02-25T03:13:43.296Z,1.55
2023-02-25T03:16:18.460Z,1.83
2023-02-25T03:19:05.326Z,2.08
2023-02-25T03:21:40.781Z,2.00
2023-02-25T03:24:14.013Z,2.45
2023-02-25T03:26:44.379Z,1.58
2023-02-25T03:29:20.825Z,1.93
2023-02-25T03:31:56.596Z,2.50
2023-02-25T03:34:30.639Z,1.63
2023-02-25T03:37:03.342Z,2.15
2023-02-25T03:39:40.303Z,2.15
2023-02-25T03:42:12.476Z,2.05
2023-02-25T03:44:49.826Z,2.67
2023-02-25T03:47:19.580Z,2.60
2023-02-25T03:50:07.884Z,2.15
2023-02-25T03:52:36.087Z,2.38
2023-02-25T03:55:06.171Z,2.00
2023-02-25T03:57:40.575Z,1.80
2023-02-25T04:00:19.148Z,1.83
2023-02-25T04:02:47.725Z,2.15
2023-02-25T04:05:17.188Z,1.90
2023-02-25T04:07:44.918Z,3.15
2023-02-25T04:10:14.321Z,2.42
2023-02-25T04:12:42.109Z,2.00
2023-02-25T04:15:09.968Z,3.63
2023-02-25T04:17:37.890Z,2.05
2023-02-25T04:20:06.513Z,2.28
2023-02-25T04:22:34.068Z,2.28
2023-02-25T04:25:02.018Z,1.92
2023-02-25T04:27:29.519Z,2.03
2023-02-25T04:29:56.940Z,1.63
2023-02-25T04:32:25.184Z,1.85
2023-02-25T04:34:52.668Z,2.28
2023-02-25T04:37:20.166Z,1.92
2023-02-25T04:39:47.749Z,2.75
2023-02-25T04:42:15.380Z,1.73
2023-02-25T04:44:42.690Z,1.50
2023-02-25T04:47:10.145Z,1.52
2023-02-25T04:49:44.897Z,1.80
2023-02-25T04:52:13.417Z,1.92
2023-02-25T04:54:40.934Z,1.95
2023-02-25T04:57:09.288Z,2.15
2023-02-25T04:59:37.116Z,2.28
2023-02-25T05:02:04.868Z,1.77
2023-02-25T05:04:32.275Z,1.80
2023-02-25T05:06:59.873Z,1.92
2023-02-25T05:09:27.347Z,2.08
2023-02-25T05:11:54.720Z,2.10
2023-02-25T05:14:22.626Z,2.20
2023-02-25T05:16:50.418Z,1.80
2023-02-25T05:19:22.373Z,2.58
2023-02-25T05:21:51.370Z,1.80
2023-02-25T05:24:19.122Z,1.95
2023-02-25T05:26:46.518Z,1.90
2023-02-25T05:29:14.124Z,3.28
2023-02-25T05:31:42.095Z,1.90
2023-02-25T05:34:09.665Z,2.47
2023-02-25T05:36:37.191Z,3.20
2023-02-25T05:39:04.775Z,2.72
2023-02-25T05:41:32.474Z,1.83
2023-02-25T05:43:59.906Z,1.92
2023-02-25T05:46:27.825Z,2.83
2023-02-25T05:48:55.736Z,1.98
2023-02-25T05:51:23.767Z,1.95
2023-02-25T05:53:52.427Z,1.83
2023-02-25T05:56:22.884Z,2.17
2023-02-25T05:58:51.380Z,3.03
2023-02-25T06:01:22.802Z,2.85
2023-02-25T06:03:51.903Z,2.13
2023-02-25T06:06:24.509Z,2.58
2023-02-25T06:08:53.283Z,2.13
2023-02-25T06:11:26.018Z,1.98
2023-02-25T06:13:55.208Z,2.53
2023-02-25T06:16:25.774Z,1.98
2023-02-25T06:18:53.477Z,2.55
2023-02-25T06:21:20.914Z,2.40
2023-02-25T06:23:50.458Z,1.92
2023-02-25T06:26:18.501Z,2.75
2023-02-25T06:28:45.963Z,2.05
2023-02-25T06:31:15.779Z,1.77
2023-02-25T06:33:43.370Z,1.90
2023-02-25T06:36:11.362Z,2.53
2023-02-25T06:38:39.501Z,1.80
2023-02-25T06:41:14.254Z,2.60
2023-02-25T06:43:42.366Z,2.20
2023-02-25T06:46:13.785Z,2.05
2023-02-25T06:48:41.218Z,2.42
2023-02-25T06:51:10.416Z,1.88
2023-02-25T06:53:39.876Z,2.00
2023-02-25T06:56:10.813Z,3.10
2023-02-25T06:58:38.770Z,2.08
2023-02-25T07:01:12.534Z,1.60
2023-02-25T07:03:41.371Z,2.22
2023-02-25T07:06:09.219Z,2.75
2023-02-25T07:08:36.986Z,2.60
2023-02-25T07:11:15.479Z,2.00
2023-02-25T07:13:43.952Z,1.70
2023-02-25T07:16:13.075Z,2.38
2023-02-25T07:18:43.964Z,2.38
2023-02-25T07:23:43.701Z,3.13
2023-02-25T07:26:13.044Z,2.13
2023-02-25T07:28:41.710Z,3.45
2023-02-25T07:31:17.493Z,3.42
2023-02-25T07:33:45.004Z,3.92
2023-02-25T07:36:13.364Z,3.63
2023-02-25T07:38:41.263Z,2.63
2023-02-25T07:41:11.419Z,3.72
2023-02-25T07:43:39.908Z,2.78
2023-02-25T07:46:08.525Z,2.38
2023-02-25T07:48:36.578Z,2.97
2023-02-25T07:51:10.569Z,2.65
2023-02-25T07:53:38.543Z,2.25
2023-02-25T07:56:07.613Z,2.58
2023-02-25T07:58:35.617Z,2.00
2023-02-25T08:01:08.720Z,2.47
2023-02-25T08:03:36.829Z,2.10
2023-02-25T08:06:08.943Z,2.22
2023-02-25T08:08:37.002Z,1.95
2023-02-25T08:11:09.582Z,2.22
2023-02-25T08:13:37.773Z,2.30
2023-02-25T08:16:10.323Z,1.77
2023-02-25T08:18:38.527Z,2.50
2023-02-25T08:21:06.003Z,3.20
2023-02-25T08:23:33.371Z,2.30
2023-02-25T08:26:01.946Z,2.75
2023-02-25T08:28:35.430Z,2.65
2023-02-25T08:31:11.674Z,2.17
2023-02-25T08:33:43.512Z,2.00
2023-02-25T08:36:13.884Z,2.35
2023-02-25T08:38:41.723Z,2.38
2023-02-25T08:41:09.678Z,2.30
2023-02-25T08:43:37.562Z,2.95
2023-02-25T08:46:06.720Z,2.42
2023-02-25T08:48:35.316Z,3.20
2023-02-25T08:51:08.762Z,2.75
2023-02-25T08:53:39.333Z,3.53
2023-02-25T08:56:08.786Z,2.65
2023-02-25T08:58:37.236Z,3.08
2023-02-25T09:01:15.308Z,3.15
2023-02-25T09:03:55.277Z,3.78
2023-02-25T09:06:26.655Z,3.10
2023-02-25T09:08:55.453Z,3.10
2023-02-25T09:11:26.674Z,3.00
2023-02-25T09:13:55.636Z,2.72
2023-02-25T09:16:33.047Z,2.42
2023-02-25T09:19:02.011Z,3.75
2023-02-25T09:21:30.198Z,3.30
2023-02-25T09:24:00.419Z,2.65
2023-02-25T09:26:28.568Z,3.63
2023-02-25T09:29:01.172Z,2.35
2023-02-25T09:31:30.042Z,2.45
2023-02-25T09:33:57.848Z,2.92
2023-02-25T09:36:25.503Z,3.60
2023-02-25T09:38:54.114Z,3.75
2023-02-25T09:41:28.651Z,2.92
2023-02-25T09:44:27.139Z,2.60
2023-02-25T09:47:17.696Z,3.08
2023-02-25T09:50:07.247Z,2.28
2023-02-25T09:52:47.561Z,3.17
2023-02-25T09:55:20.386Z,2.78
2023-02-25T09:58:17.583Z,2.58
2023-02-25T10:00:55.662Z,2.65
2023-02-25T10:03:39.543Z,2.28
2023-02-25T10:06:28.323Z,2.53
2023-02-25T10:09:06.303Z,2.40
2023-02-25T10:12:13.287Z,2.83
2023-02-25T10:15:18.970Z,2.90
2023-02-25T10:18:03.550Z,2.83
2023-02-25T10:20:52.481Z,2.08
2023-02-25T10:24:09.305Z,2.22
2023-02-25T10:26:56.575Z,2.30
2023-02-25T10:29:38.975Z,1.70
2023-02-25T10:32:27.326Z,1.98
2023-02-25T10:35:20.842Z,2.08
2023-02-25T10:37:52.619Z,1.63
2023-02-25T10:40:24.901Z,2.00
2023-02-25T10:42:59.773Z,1.80
2023-02-25T10:45:30.921Z,1.80
2023-02-25T10:48:04.209Z,1.48
2023-02-25T10:50:45.031Z,1.35
2023-02-25T10:53:19.098Z,2.00
2023-02-25T10:55:55.008Z,2.47
2023-02-25T10:58:28.595Z,1.83
2023-02-25T11:01:23.211Z,1.75
2023-02-25T11:03:59.102Z,2.05
2023-02-25T11:06:30.806Z,1.70
2023-02-25T11:09:26.880Z,2.17
2023-02-25T11:12:01.448Z,1.95
2023-02-25T11:14:32.761Z,1.65
2023-02-25T11:17:22.805Z,2.50
2023-02-25T11:20:00.289Z,2.60
2023-02-25T11:22:37.795Z,2.20
2023-02-25T11:25:15.941Z,1.92
2023-02-25T11:27:47.226Z,2.13
2023-02-25T11:30:30.496Z,1.80
2023-02-25T11:33:00.766Z,1.30
2023-02-25T11:35:31.639Z,1.33
2023-02-25T11:38:27.881Z,1.30
2023-02-25T11:40:56.133Z,1.77
2023-02-25T11:43:44.329Z,1.52
2023-02-25T11:46:25.278Z,1.30
2023-02-25T11:49:15.109Z,1.70
2023-02-25T11:51:55.301Z,1.77
2023-02-25T11:54:36.586Z,1.50
2023-02-25T11:57:26.819Z,1.45
2023-02-25T12:00:22.605Z,1.58
2023-02-25T12:03:10.401Z,2.30
2023-02-25T12:06:00.309Z,1.95
2023-02-25T12:08:55.771Z,1.85
2023-02-25T12:12:25.714Z,1.75
2023-02-25T12:15:02.308Z,2.03
2023-02-25T12:17:53.021Z,1.35
2023-02-25T12:20:57.743Z,1.50
2023-02-25T12:24:15.308Z,1.55
2023-02-25T12:27:01.055Z,2.03
2023-02-25T12:29:52.899Z,2.10
2023-02-25T12:32:36.085Z,1.83
2023-02-25T12:35:34.005Z,2.05
2023-02-25T12:38:33.947Z,1.52
2023-02-25T12:41:23.123Z,1.40
2023-02-25T12:44:00.456Z,1.50
2023-02-25T12:46:58.669Z,2.20
2023-02-25T12:50:11.589Z,1.83
2023-02-25T12:52:58.603Z,2.20
2023-02-25T12:55:40.650Z,2.00
2023-02-25T12:58:38.054Z,2.00
2023-02-25T13:01:31.004Z,1.75
2023-02-25T13:03:58.943Z,1.58
2023-02-25T13:06:57.408Z,1.80
2023-02-25T13:09:52.816Z,1.67
2023-02-25T13:12:46.203Z,1.67
2023-02-25T13:15:20.626Z,1.30
2023-02-25T13:18:27.862Z,2.72
2023-02-25T13:21:25.121Z,1.85
2023-02-25T13:24:01.671Z,1.88
2023-02-25T13:26:53.449Z,1.52
2023-02-25T13:29:39.456Z,1.80
2023-02-25T13:32:37.550Z,2.10
2023-02-25T13:35:22.601Z,1.63
2023-02-25T13:38:09.059Z,2.13
2023-02-25T13:40:55.301Z,1.35
2023-02-25T13:43:27.474Z,1.67
2023-02-25T13:46:32.849Z,1.63
2023-02-25T13:49:26.790Z,2.13
2023-02-25T13:52:12.606Z,1.33
2023-02-25T13:54:58.761Z,2.38
2023-02-25T13:57:45.134Z,1.52
2023-02-25T14:00:46.203Z,3.00
2023-02-25T14:03:23.286Z,1.23
2023-02-25T14:06:42.478Z,2.28
2023-02-25T14:09:29.415Z,2.20
2023-02-25T14:12:28.614Z,1.55
2023-02-25T14:14:56.106Z,1.67
2023-02-25T14:17:43.548Z,1.73
2023-02-25T14:20:28.835Z,1.73
2023-02-25T14:23:11.462Z,1.50
2023-02-25T14:25:57.109Z,1.73
2023-02-25T14:28:34.367Z,1.42
2023-02-25T14:31:05.211Z,1.10
2023-02-25T14:33:52.367Z,1.08
2023-02-25T14:36:29.471Z,1.63
2023-02-25T14:39:06.399Z,1.35
2023-02-25T14:42:05.201Z,2.20
2023-02-25T14:45:00.618Z,1.00
2023-02-25T14:47:51.364Z,1.95
2023-02-25T14:50:23.545Z,1.33
2023-02-25T14:53:17.205Z,1.67
2023-02-25T14:56:22.464Z,1.25
2023-02-25T14:58:57.293Z,1.33
2023-02-25T15:01:25.429Z,1.60
2023-02-25T15:04:11.547Z,2.00
2023-02-25T15:07:06.084Z,1.67
2023-02-25T15:10:08.297Z,1.83
2023-02-25T15:13:00.109Z,1.10
2023-02-25T15:16:04.393Z,1.35
2023-02-25T15:18:46.662Z,1.00
2023-02-25T15:21:39.802Z,1.92
2023-02-25T15:24:32.606Z,1.48
2023-02-25T15:27:00.598Z,1.58
2023-02-25T15:29:34.377Z,1.98
2023-02-25T15:32:30.584Z,2.78
2023-02-25T15:35:00.662Z,2.80
2023-02-25T15:37:33.243Z,2.58
2023-02-25T15:40:16.123Z,2.13
2023-02-25T15:42:49.859Z,1.88
2023-02-25T15:45:48.007Z,2.33
2023-02-25T15:48:29.413Z,1.52
2023-02-25T15:50:57.352Z,2.28
2023-02-25T15:53:24.847Z,1.45
2023-02-25T15:56:02.452Z,1.50
2023-02-25T15:58:30.252Z,1.90
2023-02-25T16:01:04.904Z,1.17
2023-02-25T16:03:32.394Z,1.23
2023-02-25T16:06:11.958Z,1.95
2023-02-25T16:09:02.650Z,2.05
2023-02-25T16:11:39.176Z,1.35
2023-02-25T16:14:14.060Z,1.50
2023-02-25T16:16:48.244Z,1.80
2023-02-25T16:19:21.453Z,1.92
2023-02-25T16:21:54.051Z,1.52
2023-02-25T16:24:24.196Z,1.88
2023-02-25T16:27:00.400Z,1.58
2023-02-25T16:29:45.941Z,1.50
2023-02-25T16:32:33.043Z,1.48
2023-02-25T16:35:13.855Z,2.08
2023-02-25T16:38:07.942Z,1.13
2023-02-25T16:40:40.863Z,1.50
2023-02-25T16:43:28.952Z,1.73
2023-02-25T16:46:02.839Z,1.95
2023-02-25T16:48:54.653Z,1.60
2023-02-25T16:51:22.621Z,1.10
2023-02-25T16:53:55.202Z,1.88
2023-02-25T16:56:29.061Z,1.58
2023-02-25T16:59:01.806Z,1.45
2023-02-25T17:01:31.504Z,1.27
2023-02-25T17:04:09.640Z,1.10
2023-02-25T17:06:38.245Z,1.67
2023-02-25T17:09:05.786Z,1.88
2023-02-25T17:11:33.456Z,1.42
2023-02-25T17:14:04.337Z,1.63
2023-02-25T17:16:38.257Z,2.22
2023-02-25T17:19:08.793Z,1.48
2023-02-25T17:21:46.591Z,3.35
2023-02-25T17:24:21.346Z,1.83
2023-02-25T17:26:51.097Z,3.38
2023-02-25T17:29:19.350Z,3.42
2023-02-25T17:31:55.990Z,2.95
2023-02-25T17:34:35.179Z,3.33
2023-02-25T17:37:06.354Z,3.30
2023-02-25T17:39:34.052Z,2.80
2023-02-25T17:42:01.710Z,2.92
2023-02-25T17:44:45.159Z,3.53
2023-02-25T17:47:29.275Z,2.78
2023-02-25T17:49:59.379Z,2.35
2023-02-25T17:52:30.464Z,2.92
2023-02-25T17:55:28.603Z,2.97
2023-02-25T17:57:59.102Z,4.47
2023-02-25T18:00:32.651Z,3.92
2023-02-25T18:03:22.730Z,4.32
2023-02-25T18:06:02.657Z,2.70
2023-02-25T18:08:31.148Z,2.40
2023-02-25T18:11:04.643Z,2.97
2023-02-25T18:13:36.354Z,2.88
2023-02-25T18:16:23.270Z,2.75
2023-02-25T18:18:52.352Z,2.85
2023-02-25T18:21:20.093Z,3.15
2023-02-25T18:23:51.077Z,4.13
2023-02-25T18:26:21.556Z,4.00
2023-02-25T18:28:49.488Z,5.75
2023-02-25T18:31:18.820Z,5.18
2023-02-25T18:33:47.297Z,4.47
2023-02-25T18:36:27.248Z,3.40
2023-02-25T18:39:04.506Z,4.30
2023-02-25T18:41:33.666Z,4.53
2023-02-25T18:44:02.246Z,4.50
2023-02-25T18:46:29.921Z,3.17
2023-02-25T18:48:58.263Z,3.03
2023-02-25T18:51:25.830Z,2.58
2023-02-25T18:53:53.190Z,3.53
2023-02-25T18:56:21.256Z,3.63
2023-02-25T18:58:48.806Z,2.75
2023-02-25T19:01:25.549Z,3.75
2023-02-25T19:03:54.234Z,3.30
2023-02-25T19:06:21.878Z,2.88
2023-02-25T19:08:49.558Z,3.10
2023-02-25T19:11:23.338Z,3.67
2023-02-25T19:13:52.160Z,3.53
2023-02-25T19:16:20.416Z,3.15
2023-02-25T19:18:48.033Z,3.80
2023-02-25T19:21:18.910Z,4.07
2023-02-25T19:23:46.698Z,3.65
2023-02-25T19:26:16.077Z,3.58
2023-02-25T19:28:43.545Z,3.53
2023-02-25T19:31:12.476Z,3.35
2023-02-25T19:33:39.956Z,2.90
2023-02-25T19:36:08.766Z,3.60
2023-02-25T19:38:36.153Z,3.92
2023-02-25T19:41:06.506Z,3.78
2023-02-25T19:43:35.197Z,3.85
2023-02-25T19:46:02.845Z,3.72
2023-02-25T19:48:30.142Z,3.67
2023-02-25T19:50:57.412Z,2.80
2023-02-25T19:53:24.926Z,3.22
2023-02-25T19:55:57.452Z,4.03
2023-02-25T19:58:25.032Z,3.88
2023-02-25T20:00:52.596Z,3.25
2023-02-25T20:03:20.192Z,3.50
2023-02-25T20:05:47.779Z,3.70
2023-02-25T20:08:15.193Z,4.10
2023-02-25T20:10:43.802Z,3.63
2023-02-25T20:13:11.298Z,3.47
2023-02-25T20:15:38.984Z,3.92
2023-02-25T20:18:06.693Z,5.13
2023-02-25T20:20:34.522Z,4.20
2023-02-25T20:23:01.941Z,4.03
2023-02-25T20:25:29.749Z,4.03
2023-02-25T20:27:58.244Z,5.63
2023-02-25T20:30:26.089Z,3.42
2023-02-25T20:32:53.738Z,2.78
2023-02-25T20:35:26.350Z,3.00
2023-02-25T20:38:09.204Z,3.45
2023-02-25T20:40:37.496Z,4.45
2023-02-25T20:43:05.449Z,4.63
2023-02-25T20:45:33.987Z,4.38
2023-02-25T20:48:03.034Z,4.00
2023-02-25T20:50:32.408Z,3.83
2023-02-25T20:53:00.184Z,3.97
2023-02-25T20:55:28.530Z,2.65
2023-02-25T20:57:56.404Z,3.20
2023-02-25T21:00:27.517Z,2.75
2023-02-25T21:02:58.348Z,3.67
2023-02-25T21:05:26.040Z,2.90
2023-02-25T21:07:53.588Z,3.15
2023-02-25T21:10:21.323Z,3.00
2023-02-25T21:12:49.065Z,3.47
2023-02-25T21:15:16.692Z,2.95
2023-02-25T21:17:44.849Z,2.88
2023-02-25T21:20:12.580Z,2.90
2023-02-25T21:22:40.245Z,3.83
2023-02-25T21:25:08.143Z,4.97
2023-02-25T21:27:35.684Z,2.72
2023-02-25T21:30:03.608Z,2.95
2023-02-25T21:32:31.491Z,2.95
2023-02-25T21:35:15.115Z,2.90
2023-02-25T21:37:43.493Z,3.40
2023-02-25T21:40:14.801Z,2.78
2023-02-25T21:42:42.694Z,2.85
2023-02-25T21:45:10.793Z,3.13
2023-02-25T21:47:38.339Z,2.33
2023-02-25T21:50:06.288Z,2.72
2023-02-25T21:52:34.583Z,2.88
2023-02-25T21:55:02.456Z,3.33
2023-02-25T21:57:30.236Z,2.67
2023-02-25T22:00:00.116Z,2.70
2023-02-25T22:02:29.758Z,2.45
2023-02-25T22:04:58.685Z,2.17
2023-02-25T22:07:26.458Z,3.05
2023-02-25T22:09:54.824Z,2.78
2023-02-25T22:12:22.537Z,2.83
2023-02-25T22:14:50.392Z,2.63
2023-02-25T22:17:19.534Z,2.35
2023-02-25T22:19:48.761Z,2.70
2023-02-25T22:22:16.803Z,5.72
2023-02-25T22:24:45.448Z,2.78
2023-02-25T22:27:13.289Z,2.67
2023-02-25T22:29:41.353Z,2.88
2023-02-25T22:32:09.167Z,2.50
2023-02-25T22:34:36.698Z,2.88
2023-02-25T22:37:04.257Z,2.60
2023-02-25T22:39:32.292Z,2.70
2023-02-25T22:42:00.579Z,3.00
2023-02-25T22:44:28.418Z,2.63
2023-02-25T22:46:56.699Z,2.55
2023-02-25T22:49:24.524Z,2.30
2023-02-25T22:51:52.256Z,2.72
2023-02-25T22:54:20.647Z,2.28
2023-02-25T22:56:49.847Z,3.40
2023-02-25T22:59:18.487Z,2.55
2023-02-25T23:01:46.440Z,2.88
2023-02-25T23:04:39.434Z,2.90
2023-02-25T23:07:07.041Z,3.85
2023-02-25T23:09:37.659Z,2.55
2023-02-25T23:12:05.793Z,3.08
2023-02-25T23:14:35.887Z,2.38
2023-02-25T23:17:03.640Z,2.90
2023-02-25T23:19:31.444Z,2.72
2023-02-25T23:22:08.665Z,2.38
2023-02-25T23:24:40.474Z,2.75
2023-02-25T23:27:07.992Z,2.67
2023-02-25T23:29:35.525Z,3.03
2023-02-25T23:32:03.246Z,2.25
2023-02-25T23:34:30.843Z,3.53
2023-02-25T23:36:58.193Z,2.90
2023-02-25T23:39:26.110Z,1.92
2023-02-25T23:41:53.842Z,2.80
2023-02-25T23:44:21.189Z,2.83
2023-02-25T23:46:48.824Z,2.50
2023-02-25T23:49:17.142Z,3.08
2023-02-25T23:51:46.701Z,2.10
2023-02-25T23:54:16.558Z,2.45
2023-02-25T23:56:43.936Z,2.35
2023-02-25T23:59:12.325Z,4.82
